Abraxas 3 — LGUA — position and weather

sailwx.info

Track history (hours):
 
Tides and Currents Weather Stations Pressure Air Temp Water Temp Dewpoint Dewpoint Depression Visibility Wind Speed Wind Dir Waves Ship Positions

Abraxas 3

Last reported at 2018-Jun-22 03:38 UTC. Time now 2018-Jun-23 10:14 UTC.
Position N 52°58' E 004°47'.

Length 15 m.

Type: Sailing vessel. MMSI: 257883190.

Date/timePositionNaut miles runAvg speedWind from/ knotsBaromVisibWave heightAir tempDewpointWater temp
2018-Jun-22 03:38N 52°58' E 004°47'0 0.0
2018-Jun-21 22:02N 52°58' E 004°47'0 0.0
2018-Jun-21 21:38N 52°58' E 004°47'0 0.0
2018-Jun-21 21:05N 52°58' E 004°47'0 0.0
2018-Jun-21 20:59N 52°58' E 004°47'0 0.0
2018-Jun-21 18:20N 52°58' E 004°47'0 0.0
2018-Jun-21 17:44N 52°58' E 004°47'0 0.0
2018-Jun-21 16:56N 52°58' E 004°47'0 0.0
2018-Jun-21 16:29N 52°58' E 004°47'0 0.0
2018-Jun-21 15:59N 52°58' E 004°47'0 0.0
2018-Jun-21 15:29N 52°58' E 004°47'0 0.0
2018-Jun-21 14:59N 52°58' E 004°47'0 0.0
2018-Jun-21 14:29N 52°58' E 004°47'0 0.0
2018-Jun-21 13:53N 52°58' E 004°47'0 0.0
2018-Jun-21 13:17N 52°58' E 004°47'0 0.0
2018-Jun-21 12:32N 52°58' E 004°47'0 0.0
2018-Jun-21 12:23N 52°58' E 004°47'0 0.0
2018-Jun-21 11:59N 52°58' E 004°47'260 5.6
2018-Jun-19 13:36N 50°48' W 001°18'1 5.6
2018-Jun-19 13:27N 50°49' W 001°18'3 5.2
2018-Jun-19 12:57N 50°51' W 001°19'0 0.0
2018-Jun-19 12:20N 50°51' W 001°19'0 0.0
2018-Jun-19 11:59N 50°51' W 001°19'0 0.0
2018-Jun-19 11:20N 50°51' W 001°19'0 0.0
2018-Jun-19 09:53N 50°51' W 001°19'0 0.4
2018-Jun-19 08:36N 50°52' W 001°19'0 0.0
2018-Jun-19 08:24N 50°52' W 001°19'0 1.2
2018-Jun-19 07:59N 50°51' W 001°19'0 0.0
2018-Jun-19 07:29N 50°51' W 001°19'0 0.0
2018-Jun-19 06:59N 50°51' W 001°19'0 0.0
2018-Jun-19 06:29N 50°51' W 001°19'0 0.0
2018-Jun-19 05:59N 50°51' W 001°19'0 0.0
2018-Jun-19 05:29N 50°51' W 001°19'0 0.0
2018-Jun-19 04:59N 50°51' W 001°19'0 0.0
2018-Jun-19 04:29N 50°51' W 001°19'0 0.0
2018-Jun-19 03:59N 50°51' W 001°19'0 0.0
2018-Jun-19 02:59N 50°51' W 001°19'0 0.0
2018-Jun-19 02:29N 50°51' W 001°19'0 0.0
2018-Jun-19 01:59N 50°51' W 001°19'0 0.0
2018-Jun-19 01:20N 50°51' W 001°19'0 0.0
2018-Jun-19 00:53N 50°51' W 001°19'0 0.0
2018-Jun-19 00:23N 50°51' W 001°19'0 0.0
2018-Jun-18 23:53N 50°51' W 001°19'0 0.0
2018-Jun-18 23:23N 50°51' W 001°19'0 0.0
2018-Jun-18 22:53N 50°51' W 001°19'0 0.0
2018-Jun-18 22:26N 50°51' W 001°19'0 0.0
2018-Jun-18 21:56N 50°51' W 001°19'0 0.0
2018-Jun-18 21:26N 50°51' W 001°19'0 0.0
2018-Jun-18 20:56N 50°51' W 001°19'0 0.0
2018-Jun-18 20:26N 50°51' W 001°19'0 0.0
2018-Jun-18 19:56N 50°51' W 001°19'0 0.0
2018-Jun-18 19:29N 50°51' W 001°19'0 0.0
2018-Jun-18 18:56N 50°51' W 001°19'0 0.0
2018-Jun-18 18:29N 50°51' W 001°19'0 0.0
2018-Jun-18 17:59N 50°51' W 001°19'0 0.0
2018-Jun-18 17:29N 50°51' W 001°19'0 0.0
2018-Jun-18 16:59N 50°51' W 001°19'0 0.0
2018-Jun-18 16:29N 50°51' W 001°19'0 0.0
2018-Jun-18 15:59N 50°51' W 001°19'0 0.0
2018-Jun-18 15:14N 50°51' W 001°19'0 0.0
2018-Jun-18 14:47N 50°51' W 001°19'0 0.0
2018-Jun-18 13:26N 50°51' W 001°19'0 0.0
2018-Jun-18 12:56N 50°51' W 001°19'0 0.0
2018-Jun-18 12:26N 50°51' W 001°19'0 0.0
2018-Jun-18 11:59N 50°51' W 001°19'  
Track history (hours):
 
Tides and Currents Weather Stations Pressure Air Temp Water Temp Dewpoint Dewpoint Depression Visibility Wind Speed Wind Dir Waves Ship Positions

Abraxas 3

Last reported at 2018-Jun-22 03:38 UTC. Time now 2018-Jun-23 10:14 UTC.
Position N 52°58' E 004°47'.

Length 15 m.

Type: Sailing vessel. MMSI: 257883190.

Date/timePositionNaut miles runAvg speedWind from/ knotsBaromVisibWave heightAir tempDewpointWater temp
2018-Jun-22 03:38N 52°58' E 004°47'0 0.0
2018-Jun-21 22:02N 52°58' E 004°47'0 0.0
2018-Jun-21 21:38N 52°58' E 004°47'0 0.0
2018-Jun-21 21:05N 52°58' E 004°47'0 0.0
2018-Jun-21 20:59N 52°58' E 004°47'0 0.0
2018-Jun-21 18:20N 52°58' E 004°47'0 0.0
2018-Jun-21 17:44N 52°58' E 004°47'0 0.0
2018-Jun-21 16:56N 52°58' E 004°47'0 0.0
2018-Jun-21 16:29N 52°58' E 004°47'0 0.0
2018-Jun-21 15:59N 52°58' E 004°47'0 0.0
2018-Jun-21 15:29N 52°58' E 004°47'0 0.0
2018-Jun-21 14:59N 52°58' E 004°47'0 0.0
2018-Jun-21 14:29N 52°58' E 004°47'0 0.0
2018-Jun-21 13:53N 52°58' E 004°47'0 0.0
2018-Jun-21 13:17N 52°58' E 004°47'0 0.0
2018-Jun-21 12:32N 52°58' E 004°47'0 0.0
2018-Jun-21 12:23N 52°58' E 004°47'0 0.0
2018-Jun-21 11:59N 52°58' E 004°47'260 5.6
2018-Jun-19 13:36N 50°48' W 001°18'1 5.6
2018-Jun-19 13:27N 50°49' W 001°18'3 5.2
2018-Jun-19 12:57N 50°51' W 001°19'0 0.0
2018-Jun-19 12:20N 50°51' W 001°19'0 0.0
2018-Jun-19 11:59N 50°51' W 001°19'0 0.0
2018-Jun-19 11:20N 50°51' W 001°19'0 0.0
2018-Jun-19 09:53N 50°51' W 001°19'0 0.4
2018-Jun-19 08:36N 50°52' W 001°19'0 0.0
2018-Jun-19 08:24N 50°52' W 001°19'0 1.2
2018-Jun-19 07:59N 50°51' W 001°19'0 0.0
2018-Jun-19 07:29N 50°51' W 001°19'0 0.0
2018-Jun-19 06:59N 50°51' W 001°19'0 0.0
2018-Jun-19 06:29N 50°51' W 001°19'0 0.0
2018-Jun-19 05:59N 50°51' W 001°19'0 0.0
2018-Jun-19 05:29N 50°51' W 001°19'0 0.0
2018-Jun-19 04:59N 50°51' W 001°19'0 0.0
2018-Jun-19 04:29N 50°51' W 001°19'0 0.0
2018-Jun-19 03:59N 50°51' W 001°19'0 0.0
2018-Jun-19 02:59N 50°51' W 001°19'0 0.0
2018-Jun-19 02:29N 50°51' W 001°19'0 0.0
2018-Jun-19 01:59N 50°51' W 001°19'0 0.0
2018-Jun-19 01:20N 50°51' W 001°19'0 0.0
2018-Jun-19 00:53N 50°51' W 001°19'0 0.0
2018-Jun-19 00:23N 50°51' W 001°19'0 0.0
2018-Jun-18 23:53N 50°51' W 001°19'0 0.0
2018-Jun-18 23:23N 50°51' W 001°19'0 0.0
2018-Jun-18 22:53N 50°51' W 001°19'0 0.0
2018-Jun-18 22:26N 50°51' W 001°19'0 0.0
2018-Jun-18 21:56N 50°51' W 001°19'0 0.0
2018-Jun-18 21:26N 50°51' W 001°19'0 0.0
2018-Jun-18 20:56N 50°51' W 001°19'0 0.0
2018-Jun-18 20:26N 50°51' W 001°19'0 0.0
2018-Jun-18 19:56N 50°51' W 001°19'0 0.0
2018-Jun-18 19:29N 50°51' W 001°19'0 0.0
2018-Jun-18 18:56N 50°51' W 001°19'0 0.0
2018-Jun-18 18:29N 50°51' W 001°19'0 0.0
2018-Jun-18 17:59N 50°51' W 001°19'0 0.0
2018-Jun-18 17:29N 50°51' W 001°19'0 0.0
2018-Jun-18 16:59N 50°51' W 001°19'0 0.0
2018-Jun-18 16:29N 50°51' W 001°19'0 0.0
2018-Jun-18 15:59N 50°51' W 001°19'0 0.0
2018-Jun-18 15:14N 50°51' W 001°19'0 0.0
2018-Jun-18 14:47N 50°51' W 001°19'0 0.0
2018-Jun-18 13:26N 50°51' W 001°19'0 0.0
2018-Jun-18 12:56N 50°51' W 001°19'0 0.0
2018-Jun-18 12:26N 50°51' W 001°19'0 0.0
2018-Jun-18 11:59N 50°51' W 001°19'  

Dump ship's entire track history